sensor_id;sensor_type;location;lat;lon;timestamp;pressure;altitude;pressure_sealevel;temperature
12918;BMP180;6526;54.312;13.092;2023-09-18T00:00:48;101798.00;;;22.90
12918;BMP180;6526;54.312;13.092;2023-09-18T00:03:19;101789.00;;;22.90
12918;BMP180;6526;54.312;13.092;2023-09-18T00:05:46;101790.00;;;22.90
12918;BMP180;6526;54.312;13.092;2023-09-18T00:08:14;101786.00;;;23.00
12918;BMP180;6526;54.312;13.092;2023-09-18T00:10:41;101787.00;;;23.00
12918;BMP180;6526;54.312;13.092;2023-09-18T00:13:07;101739.00;;;23.00
12918;BMP180;6526;54.312;13.092;2023-09-18T00:15:33;101790.00;;;23.10
12918;BMP180;6526;54.312;13.092;2023-09-18T00:17:59;101793.00;;;23.10
12918;BMP180;6526;54.312;13.092;2023-09-18T00:20:25;101786.00;;;23.10
12918;BMP180;6526;54.312;13.092;2023-09-18T00:22:56;101780.00;;;23.00
12918;BMP180;6526;54.312;13.092;2023-09-18T00:25:25;101788.00;;;22.90
12918;BMP180;6526;54.312;13.092;2023-09-18T00:27:51;101776.00;;;23.00
12918;BMP180;6526;54.312;13.092;2023-09-18T00:30:20;101782.00;;;23.00
12918;BMP180;6526;54.312;13.092;2023-09-18T00:32:46;101775.00;;;23.00
12918;BMP180;6526;54.312;13.092;2023-09-18T00:35:13;101785.00;;;22.90
12918;BMP180;6526;54.312;13.092;2023-09-18T00:37:39;101779.00;;;22.90
12918;BMP180;6526;54.312;13.092;2023-09-18T00:40:06;101771.00;;;22.90
12918;BMP180;6526;54.312;13.092;2023-09-18T00:42:32;101764.00;;;22.90
12918;BMP180;6526;54.312;13.092;2023-09-18T00:44:58;101753.00;;;22.90
12918;BMP180;6526;54.312;13.092;2023-09-18T00:47:24;101744.00;;;22.90
12918;BMP180;6526;54.312;13.092;2023-09-18T00:49:51;101745.00;;;22.80
12918;BMP180;6526;54.312;13.092;2023-09-18T00:52:20;101741.00;;;22.90
12918;BMP180;6526;54.312;13.092;2023-09-18T00:54:47;101739.00;;;23.00
12918;BMP180;6526;54.312;13.092;2023-09-18T00:57:14;101738.00;;;23.00
12918;BMP180;6526;54.312;13.092;2023-09-18T00:59:40;101734.00;;;23.00
12918;BMP180;6526;54.312;13.092;2023-09-18T01:02:06;101737.00;;;23.00
12918;BMP180;6526;54.312;13.092;2023-09-18T01:04:34;101735.00;;;23.00
12918;BMP180;6526;54.312;13.092;2023-09-18T01:07:01;101746.00;;;23.00
12918;BMP180;6526;54.312;13.092;2023-09-18T01:09:33;101743.00;;;23.00
12918;BMP180;6526;54.312;13.092;2023-09-18T01:12:21;101741.00;;;23.00
12918;BMP180;6526;54.312;13.092;2023-09-18T01:15:12;101728.00;;;23.10
12918;BMP180;6526;54.312;13.092;2023-09-18T01:17:41;101723.00;;;23.00
12918;BMP180;6526;54.312;13.092;2023-09-18T01:20:11;101726.00;;;23.00
12918;BMP180;6526;54.312;13.092;2023-09-18T01:22:38;101734.00;;;23.00
12918;BMP180;6526;54.312;13.092;2023-09-18T01:25:04;101723.00;;;23.00
12918;BMP180;6526;54.312;13.092;2023-09-18T01:27:32;101730.00;;;23.00
12918;BMP180;6526;54.312;13.092;2023-09-18T01:29:58;101709.00;;;23.10
12918;BMP180;6526;54.312;13.092;2023-09-18T01:32:26;101708.00;;;23.10
12918;BMP180;6526;54.312;13.092;2023-09-18T01:34:55;101709.00;;;23.10
12918;BMP180;6526;54.312;13.092;2023-09-18T01:37:25;101704.00;;;23.00
12918;BMP180;6526;54.312;13.092;2023-09-18T01:39:52;101701.00;;;23.00
12918;BMP180;6526;54.312;13.092;2023-09-18T01:42:19;101689.00;;;23.00
12918;BMP180;6526;54.312;13.092;2023-09-18T01:44:47;101688.00;;;23.00
12918;BMP180;6526;54.312;13.092;2023-09-18T01:47:18;101690.00;;;23.00
12918;BMP180;6526;54.312;13.092;2023-09-18T01:49:45;101684.00;;;23.00
12918;BMP180;6526;54.312;13.092;2023-09-18T01:52:12;101682.00;;;23.00
12918;BMP180;6526;54.312;13.092;2023-09-18T01:54:38;101668.00;;;23.00
12918;BMP180;6526;54.312;13.092;2023-09-18T01:57:05;101674.00;;;23.10
12918;BMP180;6526;54.312;13.092;2023-09-18T01:59:33;101676.00;;;23.00
12918;BMP180;6526;54.312;13.092;2023-09-18T02:02:00;101663.00;;;23.00
12918;BMP180;6526;54.312;13.092;2023-09-18T02:04:27;101666.00;;;23.00
12918;BMP180;6526;54.312;13.092;2023-09-18T02:06:53;101657.00;;;23.00
12918;BMP180;6526;54.312;13.092;2023-09-18T02:09:19;101658.00;;;23.10
12918;BMP180;6526;54.312;13.092;2023-09-18T02:11:47;101652.00;;;23.00
12918;BMP180;6526;54.312;13.092;2023-09-18T02:14:13;101648.00;;;22.90
12918;BMP180;6526;54.312;13.092;2023-09-18T02:16:41;101648.00;;;22.80
12918;BMP180;6526;54.312;13.092;2023-09-18T02:19:09;101642.00;;;22.90
12918;BMP180;6526;54.312;13.092;2023-09-18T02:21:35;101636.00;;;22.90
12918;BMP180;6526;54.312;13.092;2023-09-18T02:24:01;101634.00;;;22.90
12918;BMP180;6526;54.312;13.092;2023-09-18T02:26:28;101632.00;;;22.90
12918;BMP180;6526;54.312;13.092;2023-09-18T02:28:54;101636.00;;;23.00
12918;BMP180;6526;54.312;13.092;2023-09-18T02:31:21;101615.00;;;23.00
12918;BMP180;6526;54.312;13.092;2023-09-18T02:33:48;101619.00;;;23.00
12918;BMP180;6526;54.312;13.092;2023-09-18T02:36:14;101607.00;;;22.90
12918;BMP180;6526;54.312;13.092;2023-09-18T02:38:40;101608.00;;;22.90
12918;BMP180;6526;54.312;13.092;2023-09-18T02:41:07;101620.00;;;22.90
12918;BMP180;6526;54.312;13.092;2023-09-18T02:43:33;101613.00;;;22.90
12918;BMP180;6526;54.312;13.092;2023-09-18T02:45:59;101622.00;;;22.90
12918;BMP180;6526;54.312;13.092;2023-09-18T02:48:25;101618.00;;;22.90
12918;BMP180;6526;54.312;13.092;2023-09-18T02:50:51;101615.00;;;23.00
12918;BMP180;6526;54.312;13.092;2023-09-18T02:53:22;101613.00;;;22.90
12918;BMP180;6526;54.312;13.092;2023-09-18T02:55:51;101612.00;;;23.00
12918;BMP180;6526;54.312;13.092;2023-09-18T02:58:18;101595.00;;;23.00
12918;BMP180;6526;54.312;13.092;2023-09-18T03:00:46;101585.00;;;23.00
12918;BMP180;6526;54.312;13.092;2023-09-18T03:03:12;101587.00;;;23.00
12918;BMP180;6526;54.312;13.092;2023-09-18T03:05:39;101568.00;;;23.00
12918;BMP180;6526;54.312;13.092;2023-09-18T03:08:06;101570.00;;;23.00
12918;BMP180;6526;54.312;13.092;2023-09-18T03:10:36;101566.00;;;23.00
12918;BMP180;6526;54.312;13.092;2023-09-18T03:13:03;101575.00;;;23.00
12918;BMP180;6526;54.312;13.092;2023-09-18T03:15:30;101569.00;;;23.00
12918;BMP180;6526;54.312;13.092;2023-09-18T03:17:57;101576.00;;;23.10
12918;BMP180;6526;54.312;13.092;2023-09-18T03:20:25;101567.00;;;23.10
12918;BMP180;6526;54.312;13.092;2023-09-18T03:22:52;101565.00;;;23.00
12918;BMP180;6526;54.312;13.092;2023-09-18T03:25:18;101555.00;;;23.00
12918;BMP180;6526;54.312;13.092;2023-09-18T03:27:44;101551.00;;;23.00
12918;BMP180;6526;54.312;13.092;2023-09-18T03:30:10;101537.00;;;23.10
12918;BMP180;6526;54.312;13.092;2023-09-18T03:32:38;101537.00;;;23.00
12918;BMP180;6526;54.312;13.092;2023-09-18T03:35:05;101524.00;;;22.80
12918;BMP180;6526;54.312;13.092;2023-09-18T03:37:31;101532.00;;;23.00
12918;BMP180;6526;54.312;13.092;2023-09-18T03:39:57;101520.00;;;23.00
12918;BMP180;6526;54.312;13.092;2023-09-18T03:42:23;101520.00;;;23.00
12918;BMP180;6526;54.312;13.092;2023-09-18T03:44:49;101519.00;;;23.00
12918;BMP180;6526;54.312;13.092;2023-09-18T03:47:15;101515.00;;;23.00
12918;BMP180;6526;54.312;13.092;2023-09-18T03:49:41;101483.00;;;22.90
12918;BMP180;6526;54.312;13.092;2023-09-18T03:52:07;101505.00;;;23.00
12918;BMP180;6526;54.312;13.092;2023-09-18T03:54:33;101496.00;;;23.00
12918;BMP180;6526;54.312;13.092;2023-09-18T03:57:00;101501.00;;;23.00
12918;BMP180;6526;54.312;13.092;2023-09-18T03:59:26;101503.00;;;23.00
12918;BMP180;6526;54.312;13.092;2023-09-18T04:01:52;101507.00;;;23.00
12918;BMP180;6526;54.312;13.092;2023-09-18T04:04:18;101494.00;;;23.00
12918;BMP180;6526;54.312;13.092;2023-09-18T04:06:44;101501.00;;;23.00
12918;BMP180;6526;54.312;13.092;2023-09-18T04:09:12;101490.00;;;22.80
12918;BMP180;6526;54.312;13.092;2023-09-18T04:11:38;101497.00;;;23.00
12918;BMP180;6526;54.312;13.092;2023-09-18T04:14:04;101490.00;;;22.90
12918;BMP180;6526;54.312;13.092;2023-09-18T04:16:30;101485.00;;;22.90
12918;BMP180;6526;54.312;13.092;2023-09-18T04:19:04;101475.00;;;22.90
12918;BMP180;6526;54.312;13.092;2023-09-18T04:21:30;101477.00;;;22.80
12918;BMP180;6526;54.312;13.092;2023-09-18T04:23:56;101478.00;;;22.90
12918;BMP180;6526;54.312;13.092;2023-09-18T04:26:26;101479.00;;;22.80
12918;BMP180;6526;54.312;13.092;2023-09-18T04:29:01;101476.00;;;22.90
12918;BMP180;6526;54.312;13.092;2023-09-18T04:31:27;101477.00;;;22.80
12918;BMP180;6526;54.312;13.092;2023-09-18T04:33:55;101470.00;;;22.80
12918;BMP180;6526;54.312;13.092;2023-09-18T04:36:21;101480.00;;;22.80
12918;BMP180;6526;54.312;13.092;2023-09-18T04:38:47;101479.00;;;22.80
12918;BMP180;6526;54.312;13.092;2023-09-18T04:41:14;101472.00;;;22.80
12918;BMP180;6526;54.312;13.092;2023-09-18T04:43:41;101463.00;;;22.80
12918;BMP180;6526;54.312;13.092;2023-09-18T04:46:08;101461.00;;;22.80
12918;BMP180;6526;54.312;13.092;2023-09-18T04:48:35;101450.00;;;22.80
12918;BMP180;6526;54.312;13.092;2023-09-18T04:51:01;101441.00;;;22.80
12918;BMP180;6526;54.312;13.092;2023-09-18T04:53:29;101441.00;;;22.80
12918;BMP180;6526;54.312;13.092;2023-09-18T04:55:55;101431.00;;;22.80
12918;BMP180;6526;54.312;13.092;2023-09-18T04:58:21;101418.00;;;22.90
12918;BMP180;6526;54.312;13.092;2023-09-18T05:00:56;101429.00;;;22.80
12918;BMP180;6526;54.312;13.092;2023-09-18T05:03:22;101429.00;;;22.80
12918;BMP180;6526;54.312;13.092;2023-09-18T05:05:49;101417.00;;;22.90
12918;BMP180;6526;54.312;13.092;2023-09-18T05:08:15;101424.00;;;22.90
12918;BMP180;6526;54.312;13.092;2023-09-18T05:10:41;101427.00;;;22.80
12918;BMP180;6526;54.312;13.092;2023-09-18T05:13:08;101428.00;;;22.90
12918;BMP180;6526;54.312;13.092;2023-09-18T05:15:34;101432.00;;;22.80
12918;BMP180;6526;54.312;13.092;2023-09-18T05:18:00;101427.00;;;22.90
12918;BMP180;6526;54.312;13.092;2023-09-18T05:20:28;101419.00;;;22.80
12918;BMP180;6526;54.312;13.092;2023-09-18T05:22:55;101424.00;;;22.80
12918;BMP180;6526;54.312;13.092;2023-09-18T05:25:23;101414.00;;;22.80
12918;BMP180;6526;54.312;13.092;2023-09-18T05:27:51;101418.00;;;22.80
12918;BMP180;6526;54.312;13.092;2023-09-18T05:30:27;101399.00;;;22.80
12918;BMP180;6526;54.312;13.092;2023-09-18T05:32:57;101398.00;;;22.90
12918;BMP180;6526;54.312;13.092;2023-09-18T05:35:23;101392.00;;;23.00
12918;BMP180;6526;54.312;13.092;2023-09-18T05:37:50;101395.00;;;23.10
12918;BMP180;6526;54.312;13.092;2023-09-18T05:40:17;101389.00;;;23.00
12918;BMP180;6526;54.312;13.092;2023-09-18T05:42:44;101377.00;;;23.00
12918;BMP180;6526;54.312;13.092;2023-09-18T05:45:12;101375.00;;;23.10
12918;BMP180;6526;54.312;13.092;2023-09-18T05:47:38;101368.00;;;23.10
12918;BMP180;6526;54.312;13.092;2023-09-18T05:50:06;101380.00;;;23.20
12918;BMP180;6526;54.312;13.092;2023-09-18T05:52:33;101379.00;;;23.20
12918;BMP180;6526;54.312;13.092;2023-09-18T05:55:01;101377.00;;;23.30
12918;BMP180;6526;54.312;13.092;2023-09-18T05:57:27;101361.00;;;23.40
12918;BMP180;6526;54.312;13.092;2023-09-18T05:59:55;101370.00;;;23.50
12918;BMP180;6526;54.312;13.092;2023-09-18T06:02:22;101363.00;;;23.50
12918;BMP180;6526;54.312;13.092;2023-09-18T06:04:48;101362.00;;;23.50
12918;BMP180;6526;54.312;13.092;2023-09-18T06:07:15;101365.00;;;23.50
12918;BMP180;6526;54.312;13.092;2023-09-18T06:09:41;101360.00;;;23.50
12918;BMP180;6526;54.312;13.092;2023-09-18T06:12:07;101350.00;;;23.50
12918;BMP180;6526;54.312;13.092;2023-09-18T06:14:35;101355.00;;;23.50
12918;BMP180;6526;54.312;13.092;2023-09-18T06:17:04;101343.00;;;23.60
12918;BMP180;6526;54.312;13.092;2023-09-18T06:19:30;101337.00;;;23.70
12918;BMP180;6526;54.312;13.092;2023-09-18T06:21:56;101346.00;;;23.80
12918;BMP180;6526;54.312;13.092;2023-09-18T06:24:22;101332.00;;;23.90
12918;BMP180;6526;54.312;13.092;2023-09-18T06:26:48;101332.00;;;24.00
12918;BMP180;6526;54.312;13.092;2023-09-18T06:29:14;101325.00;;;24.10
12918;BMP180;6526;54.312;13.092;2023-09-18T06:31:40;101333.00;;;24.10
12918;BMP180;6526;54.312;13.092;2023-09-18T06:34:06;101323.00;;;24.10
12918;BMP180;6526;54.312;13.092;2023-09-18T06:36:32;101323.00;;;24.20
12918;BMP180;6526;54.312;13.092;2023-09-18T06:38:58;101321.00;;;24.20
12918;BMP180;6526;54.312;13.092;2023-09-18T06:41:24;101330.00;;;24.20
12918;BMP180;6526;54.312;13.092;2023-09-18T06:43:50;101315.00;;;24.30
12918;BMP180;6526;54.312;13.092;2023-09-18T06:46:16;101313.00;;;24.50
12918;BMP180;6526;54.312;13.092;2023-09-18T06:48:43;101319.00;;;24.50
12918;BMP180;6526;54.312;13.092;2023-09-18T06:51:15;101314.00;;;24.60
12918;BMP180;6526;54.312;13.092;2023-09-18T06:53:42;101309.00;;;24.70
12918;BMP180;6526;54.312;13.092;2023-09-18T06:56:08;101311.00;;;24.80
12918;BMP180;6526;54.312;13.092;2023-09-18T06:58:35;101287.00;;;25.00
12918;BMP180;6526;54.312;13.092;2023-09-18T07:01:01;101290.00;;;25.10
12918;BMP180;6526;54.312;13.092;2023-09-18T07:03:27;101292.00;;;25.30
12918;BMP180;6526;54.312;13.092;2023-09-18T07:05:53;101285.00;;;25.40
12918;BMP180;6526;54.312;13.092;2023-09-18T07:08:19;101280.00;;;25.40
12918;BMP180;6526;54.312;13.092;2023-09-18T07:10:50;101276.00;;;25.50
12918;BMP180;6526;54.312;13.092;2023-09-18T07:13:16;101280.00;;;25.60
12918;BMP180;6526;54.312;13.092;2023-09-18T07:15:42;101286.00;;;25.70
12918;BMP180;6526;54.312;13.092;2023-09-18T07:18:09;101277.00;;;25.80
12918;BMP180;6526;54.312;13.092;2023-09-18T07:20:40;101284.00;;;25.70
12918;BMP180;6526;54.312;13.092;2023-09-18T07:23:06;101277.00;;;25.80
12918;BMP180;6526;54.312;13.092;2023-09-18T07:25:32;101264.00;;;26.00
12918;BMP180;6526;54.312;13.092;2023-09-18T07:27:58;101278.00;;;26.00
12918;BMP180;6526;54.312;13.092;2023-09-18T07:30:24;101262.00;;;25.90
12918;BMP180;6526;54.312;13.092;2023-09-18T07:32:55;101258.00;;;25.80
12918;BMP180;6526;54.312;13.092;2023-09-18T07:35:27;101259.00;;;25.80
12918;BMP180;6526;54.312;13.092;2023-09-18T07:37:53;101256.00;;;25.80
12918;BMP180;6526;54.312;13.092;2023-09-18T07:40:20;101257.00;;;25.90
12918;BMP180;6526;54.312;13.092;2023-09-18T07:42:46;101249.00;;;25.90
12918;BMP180;6526;54.312;13.092;2023-09-18T07:45:12;101248.00;;;26.00
12918;BMP180;6526;54.312;13.092;2023-09-18T07:47:39;101250.00;;;26.00
12918;BMP180;6526;54.312;13.092;2023-09-18T07:50:05;101251.00;;;26.20
12918;BMP180;6526;54.312;13.092;2023-09-18T07:52:32;101255.00;;;26.40
12918;BMP180;6526;54.312;13.092;2023-09-18T07:54:58;101253.00;;;26.50
12918;BMP180;6526;54.312;13.092;2023-09-18T07:57:27;101245.00;;;26.50
12918;BMP180;6526;54.312;13.092;2023-09-18T07:59:58;101256.00;;;26.50
12918;BMP180;6526;54.312;13.092;2023-09-18T08:02:24;101237.00;;;26.60
12918;BMP180;6526;54.312;13.092;2023-09-18T08:04:51;101239.00;;;26.70
12918;BMP180;6526;54.312;13.092;2023-09-18T08:07:19;101231.00;;;26.90
12918;BMP180;6526;54.312;13.092;2023-09-18T08:09:45;101223.00;;;27.10
12918;BMP180;6526;54.312;13.092;2023-09-18T08:12:13;101223.00;;;27.20
12918;BMP180;6526;54.312;13.092;2023-09-18T08:14:39;101211.00;;;27.30
12918;BMP180;6526;54.312;13.092;2023-09-18T08:17:05;101225.00;;;27.50
12918;BMP180;6526;54.312;13.092;2023-09-18T08:19:33;101210.00;;;27.70
12918;BMP180;6526;54.312;13.092;2023-09-18T08:21:59;101168.00;;;27.90
12918;BMP180;6526;54.312;13.092;2023-09-18T08:24:29;101195.00;;;28.10
12918;BMP180;6526;54.312;13.092;2023-09-18T08:26:56;101193.00;;;28.30
12918;BMP180;6526;54.312;13.092;2023-09-18T08:29:22;101196.00;;;28.40
12918;BMP180;6526;54.312;13.092;2023-09-18T08:31:49;101195.00;;;28.20
12918;BMP180;6526;54.312;13.092;2023-09-18T08:34:16;101196.00;;;28.20
12918;BMP180;6526;54.312;13.092;2023-09-18T08:36:42;101189.00;;;28.30
12918;BMP180;6526;54.312;13.092;2023-09-18T08:39:08;101190.00;;;28.40
12918;BMP180;6526;54.312;13.092;2023-09-18T08:41:40;101179.00;;;28.40
12918;BMP180;6526;54.312;13.092;2023-09-18T08:44:08;101183.00;;;28.60
12918;BMP180;6526;54.312;13.092;2023-09-18T08:46:36;101187.00;;;28.70
12918;BMP180;6526;54.312;13.092;2023-09-18T08:49:04;101192.00;;;28.70
12918;BMP180;6526;54.312;13.092;2023-09-18T08:51:30;101178.00;;;28.90
12918;BMP180;6526;54.312;13.092;2023-09-18T08:53:57;101189.00;;;29.00
12918;BMP180;6526;54.312;13.092;2023-09-18T08:56:24;101192.00;;;29.10
12918;BMP180;6526;54.312;13.092;2023-09-18T08:58:50;101193.00;;;29.10
12918;BMP180;6526;54.312;13.092;2023-09-18T09:01:16;101177.00;;;28.90
12918;BMP180;6526;54.312;13.092;2023-09-18T09:03:43;101176.00;;;28.80
12918;BMP180;6526;54.312;13.092;2023-09-18T09:06:12;101168.00;;;28.90
12918;BMP180;6526;54.312;13.092;2023-09-18T09:08:38;101164.00;;;28.90
12918;BMP180;6526;54.312;13.092;2023-09-18T09:11:04;101163.00;;;28.90
12918;BMP180;6526;54.312;13.092;2023-09-18T09:13:31;101160.00;;;28.80
12918;BMP180;6526;54.312;13.092;2023-09-18T09:15:58;101158.00;;;28.70
12918;BMP180;6526;54.312;13.092;2023-09-18T09:18:29;101154.00;;;28.70
12918;BMP180;6526;54.312;13.092;2023-09-18T09:21:01;101137.00;;;28.80
12918;BMP180;6526;54.312;13.092;2023-09-18T09:23:44;101126.00;;;29.00
12918;BMP180;6526;54.312;13.092;2023-09-18T09:26:15;101123.00;;;29.00
12918;BMP180;6526;54.312;13.092;2023-09-18T09:28:43;101122.00;;;29.40
12918;BMP180;6526;54.312;13.092;2023-09-18T09:31:10;101118.00;;;29.40
12918;BMP180;6526;54.312;13.092;2023-09-18T09:33:37;101116.00;;;29.60
12918;BMP180;6526;54.312;13.092;2023-09-18T09:36:07;101124.00;;;29.60
12918;BMP180;6526;54.312;13.092;2023-09-18T09:38:34;101115.00;;;29.70
12918;BMP180;6526;54.312;13.092;2023-09-18T09:41:04;101124.00;;;29.80
12918;BMP180;6526;54.312;13.092;2023-09-18T09:43:33;101113.00;;;29.90
12918;BMP180;6526;54.312;13.092;2023-09-18T09:46:02;101115.00;;;29.90
12918;BMP180;6526;54.312;13.092;2023-09-18T09:48:28;101116.00;;;30.00
12918;BMP180;6526;54.312;13.092;2023-09-18T09:51:00;101104.00;;;30.00
12918;BMP180;6526;54.312;13.092;2023-09-18T09:53:46;101104.00;;;30.10
12918;BMP180;6526;54.312;13.092;2023-09-18T09:56:17;101100.00;;;30.10
12918;BMP180;6526;54.312;13.092;2023-09-18T09:59:04;101100.00;;;30.20
12918;BMP180;6526;54.312;13.092;2023-09-18T10:01:34;101086.00;;;30.30
12918;BMP180;6526;54.312;13.092;2023-09-18T10:04:04;101083.00;;;30.00
12918;BMP180;6526;54.312;13.092;2023-09-18T10:06:34;101089.00;;;30.10
12918;BMP180;6526;54.312;13.092;2023-09-18T10:09:02;101077.00;;;30.10
12918;BMP180;6526;54.312;13.092;2023-09-18T10:11:28;101072.00;;;30.10
12918;BMP180;6526;54.312;13.092;2023-09-18T10:14:09;101054.00;;;30.20
12918;BMP180;6526;54.312;13.092;2023-09-18T10:16:41;101067.00;;;30.20
12918;BMP180;6526;54.312;13.092;2023-09-18T10:19:15;101056.00;;;30.20
12918;BMP180;6526;54.312;13.092;2023-09-18T10:24:40;101071.00;;;30.10
12918;BMP180;6526;54.312;13.092;2023-09-18T10:27:07;101054.00;;;30.00
12918;BMP180;6526;54.312;13.092;2023-09-18T10:29:36;101058.00;;;30.00
12918;BMP180;6526;54.312;13.092;2023-09-18T10:32:06;101038.00;;;29.90
12918;BMP180;6526;54.312;13.092;2023-09-18T10:34:36;101040.00;;;29.90
12918;BMP180;6526;54.312;13.092;2023-09-18T10:37:03;101027.00;;;29.90
12918;BMP180;6526;54.312;13.092;2023-09-18T10:39:36;101014.00;;;29.70
12918;BMP180;6526;54.312;13.092;2023-09-18T10:42:03;101009.00;;;29.70
12918;BMP180;6526;54.312;13.092;2023-09-18T10:44:30;101011.00;;;29.70
12918;BMP180;6526;54.312;13.092;2023-09-18T10:46:58;101007.00;;;29.80
12918;BMP180;6526;54.312;13.092;2023-09-18T10:49:25;101010.00;;;29.90
12918;BMP180;6526;54.312;13.092;2023-09-18T10:51:56;101003.00;;;29.70
12918;BMP180;6526;54.312;13.092;2023-09-18T10:54:24;101012.00;;;29.70
12918;BMP180;6526;54.312;13.092;2023-09-18T10:56:51;101004.00;;;29.80
12918;BMP180;6526;54.312;13.092;2023-09-18T10:59:17;101002.00;;;29.70
12918;BMP180;6526;54.312;13.092;2023-09-18T11:01:44;100999.00;;;29.70
12918;BMP180;6526;54.312;13.092;2023-09-18T11:04:12;101002.00;;;29.80
12918;BMP180;6526;54.312;13.092;2023-09-18T11:12:15;101011.00;;;29.80
12918;BMP180;6526;54.312;13.092;2023-09-18T11:22:35;100994.00;;;29.80
12918;BMP180;6526;54.312;13.092;2023-09-18T11:28:16;100980.00;;;29.60
12918;BMP180;6526;54.312;13.092;2023-09-18T11:30:52;100970.00;;;29.60
12918;BMP180;6526;54.312;13.092;2023-09-18T11:33:42;100977.00;;;29.60
12918;BMP180;6526;54.312;13.092;2023-09-18T11:36:13;100966.00;;;29.70
12918;BMP180;6526;54.312;13.092;2023-09-18T11:39:00;100962.00;;;29.70
12918;BMP180;6526;54.312;13.092;2023-09-18T11:41:34;100960.00;;;29.90
12918;BMP180;6526;54.312;13.092;2023-09-18T11:46:41;100944.00;;;30.10
12918;BMP180;6526;54.312;13.092;2023-09-18T11:49:13;100940.00;;;30.20
12918;BMP180;6526;54.312;13.092;2023-09-18T11:51:40;100936.00;;;30.20
12918;BMP180;6526;54.312;13.092;2023-09-18T11:54:07;100943.00;;;30.10
12918;BMP180;6526;54.312;13.092;2023-09-18T11:56:33;100924.00;;;30.20
12918;BMP180;6526;54.312;13.092;2023-09-18T11:58:59;100939.00;;;30.40
12918;BMP180;6526;54.312;13.092;2023-09-18T12:01:30;100926.00;;;30.60
12918;BMP180;6526;54.312;13.092;2023-09-18T12:04:04;100920.00;;;30.70
12918;BMP180;6526;54.312;13.092;2023-09-18T12:06:35;100919.00;;;30.70
12918;BMP180;6526;54.312;13.092;2023-09-18T12:09:02;100930.00;;;30.90
12918;BMP180;6526;54.312;13.092;2023-09-18T12:11:29;100927.00;;;31.00
12918;BMP180;6526;54.312;13.092;2023-09-18T12:13:56;100916.00;;;30.90
12918;BMP180;6526;54.312;13.092;2023-09-18T12:16:24;100914.00;;;30.90
12918;BMP180;6526;54.312;13.092;2023-09-18T12:18:50;100910.00;;;30.90
12918;BMP180;6526;54.312;13.092;2023-09-18T12:21:17;100917.00;;;30.90
12918;BMP180;6526;54.312;13.092;2023-09-18T12:23:45;100925.00;;;30.90
12918;BMP180;6526;54.312;13.092;2023-09-18T12:26:15;100916.00;;;30.70
12918;BMP180;6526;54.312;13.092;2023-09-18T12:28:43;100930.00;;;30.70
12918;BMP180;6526;54.312;13.092;2023-09-18T12:31:13;100917.00;;;30.50
12918;BMP180;6526;54.312;13.092;2023-09-18T12:33:40;100918.00;;;30.40
12918;BMP180;6526;54.312;13.092;2023-09-18T12:36:08;100920.00;;;30.30
12918;BMP180;6526;54.312;13.092;2023-09-18T12:38:34;100924.00;;;30.20
12918;BMP180;6526;54.312;13.092;2023-09-18T12:41:02;100926.00;;;30.10
12918;BMP180;6526;54.312;13.092;2023-09-18T12:43:41;100918.00;;;30.10
12918;BMP180;6526;54.312;13.092;2023-09-18T12:46:08;100922.00;;;30.00
12918;BMP180;6526;54.312;13.092;2023-09-18T12:48:38;100912.00;;;30.10
12918;BMP180;6526;54.312;13.092;2023-09-18T12:51:05;100899.00;;;29.90
12918;BMP180;6526;54.312;13.092;2023-09-18T12:53:32;100908.00;;;29.90
12918;BMP180;6526;54.312;13.092;2023-09-18T12:56:12;100901.00;;;29.80
12918;BMP180;6526;54.312;13.092;2023-09-18T12:58:39;100906.00;;;29.70
12918;BMP180;6526;54.312;13.092;2023-09-18T13:01:07;100899.00;;;29.70
12918;BMP180;6526;54.312;13.092;2023-09-18T13:03:42;100898.00;;;29.70
12918;BMP180;6526;54.312;13.092;2023-09-18T13:06:17;100901.00;;;29.60
12918;BMP180;6526;54.312;13.092;2023-09-18T13:08:43;100889.00;;;29.70
12918;BMP180;6526;54.312;13.092;2023-09-18T13:11:10;100895.00;;;29.70
12918;BMP180;6526;54.312;13.092;2023-09-18T13:13:40;100891.00;;;29.60
12918;BMP180;6526;54.312;13.092;2023-09-18T13:16:08;100901.00;;;29.60
12918;BMP180;6526;54.312;13.092;2023-09-18T13:18:37;100884.00;;;29.60
12918;BMP180;6526;54.312;13.092;2023-09-18T13:21:14;100882.00;;;29.60
12918;BMP180;6526;54.312;13.092;2023-09-18T13:23:40;100877.00;;;29.50
12918;BMP180;6526;54.312;13.092;2023-09-18T13:26:07;100883.00;;;29.40
12918;BMP180;6526;54.312;13.092;2023-09-18T13:28:36;100872.00;;;29.50
12918;BMP180;6526;54.312;13.092;2023-09-18T13:31:04;100871.00;;;29.60
12918;BMP180;6526;54.312;13.092;2023-09-18T13:33:39;100865.00;;;29.50
12918;BMP180;6526;54.312;13.092;2023-09-18T13:36:06;100865.00;;;29.50
12918;BMP180;6526;54.312;13.092;2023-09-18T13:38:32;100874.00;;;29.50
12918;BMP180;6526;54.312;13.092;2023-09-18T13:40:58;100872.00;;;29.50
12918;BMP180;6526;54.312;13.092;2023-09-18T13:43:24;100877.00;;;29.60
12918;BMP180;6526;54.312;13.092;2023-09-18T13:45:50;100876.00;;;29.60
12918;BMP180;6526;54.312;13.092;2023-09-18T13:48:19;100876.00;;;29.60
12918;BMP180;6526;54.312;13.092;2023-09-18T13:50:46;100872.00;;;29.60
12918;BMP180;6526;54.312;13.092;2023-09-18T13:53:13;100866.00;;;29.60
12918;BMP180;6526;54.312;13.092;2023-09-18T13:55:40;100876.00;;;29.70
12918;BMP180;6526;54.312;13.092;2023-09-18T13:58:06;100870.00;;;29.70
12918;BMP180;6526;54.312;13.092;2023-09-18T14:00:32;100879.00;;;29.70
12918;BMP180;6526;54.312;13.092;2023-09-18T14:02:59;100876.00;;;29.60
12918;BMP180;6526;54.312;13.092;2023-09-18T14:05:25;100886.00;;;29.60
12918;BMP180;6526;54.312;13.092;2023-09-18T14:07:53;100875.00;;;29.50
12918;BMP180;6526;54.312;13.092;2023-09-18T14:10:25;100864.00;;;29.50
12918;BMP180;6526;54.312;13.092;2023-09-18T14:12:51;100855.00;;;29.50
12918;BMP180;6526;54.312;13.092;2023-09-18T14:15:17;100867.00;;;29.40
12918;BMP180;6526;54.312;13.092;2023-09-18T14:17:44;100860.00;;;29.40
12918;BMP180;6526;54.312;13.092;2023-09-18T14:20:10;100860.00;;;29.30
12918;BMP180;6526;54.312;13.092;2023-09-18T14:22:36;100857.00;;;29.30